Time;durP1;ratioP1;P1;durP2;ratioP2;P2;SDS_P1;SDS_P2;PMS_P1;PMS_P2;Temp;Humidity;BMP_temperature;BMP_pressure;BME280_temperature;BME280_humidity;BME280_pressure;Samples;Min_cycle;Max_cycle;Signal;HPM_P1;HPM_P2
2022/05/31 00:01:47;;;;;;;2.05;0.80;;;16.90;54.00;;;;;;5051381;28;20225;-68
2022/05/31 00:04:12;;;;;;;1.38;1.00;;;16.80;54.00;;;;;;5051215;28;20186;-68
2022/05/31 00:06:39;;;;;;;1.17;0.90;;;16.80;53.90;;;;;;5051972;28;20214;-67
2022/05/31 00:09:04;;;;;;;1.25;1.00;;;16.90;54.00;;;;;;5051461;28;20254;-67
2022/05/31 00:11:30;;;;;;;1.23;1.10;;;16.80;53.90;;;;;;5052164;28;20258;-67
2022/05/31 00:13:58;;;;;;;1.38;0.93;;;16.80;53.90;;;;;;5051957;28;20175;-66
2022/05/31 00:16:23;;;;;;;1.00;0.90;;;17.20;54.20;;;;;;5051228;28;20654;-67
2022/05/31 00:18:49;;;;;;;1.02;1.00;;;16.80;53.90;;;;;;5051864;28;20175;-67
2022/05/31 00:21:14;;;;;;;1.80;0.90;;;16.80;54.00;;;;;;5052126;28;20190;-67
2022/05/31 00:23:41;;;;;;;1.30;0.90;;;16.80;54.00;;;;;;5051145;28;20179;-67
2022/05/31 00:26:06;;;;;;;1.20;1.10;;;16.80;54.00;;;;;;5051742;28;20684;-67
2022/05/31 00:28:32;;;;;;;0.80;0.80;;;16.80;54.00;;;;;;5051807;28;20239;-68
2022/05/31 00:30:57;;;;;;;1.30;1.20;;;16.80;54.00;;;;;;5050745;28;20186;-68
2022/05/31 00:33:24;;;;;;;1.70;0.80;;;16.70;54.00;;;;;;5050477;28;20536;-68
2022/05/31 00:35:49;;;;;;;2.05;0.90;;;16.80;54.10;;;;;;5050351;28;20532;-67
2022/05/31 00:38:15;;;;;;;1.33;1.10;;;16.70;54.00;;;;;;5050064;28;20167;-68
2022/05/31 00:40:40;;;;;;;0.90;0.90;;;16.70;54.10;;;;;;5050220;28;20183;-67
2022/05/31 00:43:12;;;;;;;1.55;1.08;;;16.70;54.10;;;;;;5050838;28;20177;-67
2022/05/31 00:46:06;;;;;;;1.55;0.90;;;16.70;54.10;;;;;;5051463;28;20234;-67
2022/05/31 00:48:35;;;;;;;1.52;1.00;;;16.70;54.00;;;;;;5050382;28;20183;-66
2022/05/31 00:51:19;;;;;;;1.13;0.93;;;16.70;54.00;;;;;;5049619;28;20178;-67
2022/05/31 00:53:52;;;;;;;0.90;0.90;;;16.70;54.10;;;;;;5050350;28;20177;-67
2022/05/31 00:56:20;;;;;;;2.13;1.00;;;16.70;54.10;;;;;;5050406;28;20179;-67
2022/05/31 00:58:51;;;;;;;1.70;1.00;;;16.70;54.00;;;;;;5048876;28;20172;-68
2022/05/31 01:01:16;;;;;;;0.82;0.80;;;16.70;54.10;;;;;;5050276;28;20292;-68
2022/05/31 01:03:42;;;;;;;1.77;0.90;;;16.70;54.10;;;;;;5049946;28;20170;-67
2022/05/31 01:06:10;;;;;;;0.95;0.93;;;16.70;54.00;;;;;;5049544;28;20665;-68
2022/05/31 01:08:36;;;;;;;0.93;0.80;;;16.70;54.00;;;;;;5051293;28;20190;-67
2022/05/31 01:11:04;;;;;;;0.85;0.85;;;16.70;54.10;;;;;;5050443;28;20175;-66
2022/05/31 01:13:30;;;;;;;1.75;1.10;;;16.60;54.00;;;;;;5049553;28;20201;-66
2022/05/31 01:16:06;;;;;;;1.08;0.90;;;16.60;54.00;;;;;;5051056;28;20618;-66
2022/05/31 01:18:31;;;;;;;2.45;0.90;;;16.60;54.00;;;;;;5050606;28;20179;-66
2022/05/31 01:20:57;;;;;;;1.63;0.90;;;16.60;54.70;;;;;;5051245;28;20583;-66
2022/05/31 01:23:22;;;;;;;1.20;1.10;;;16.60;54.00;;;;;;5051426;28;20357;-66
2022/05/31 01:25:51;;;;;;;1.25;1.00;;;16.60;54.10;;;;;;5049107;28;20225;-67
2022/05/31 01:28:54;;;;;;;1.42;1.00;;;16.60;54.10;;;;;;5051434;28;20179;-67
2022/05/31 01:31:31;;;;;;;1.20;1.10;;;16.60;54.10;;;;;;5051577;28;20175;-67
2022/05/31 01:34:07;;;;;;;1.08;0.98;;;16.60;54.10;;;;;;5050171;28;20174;-68
2022/05/31 01:36:36;;;;;;;3.10;1.08;;;16.60;54.20;;;;;;5050132;28;20179;-67
2022/05/31 01:39:08;;;;;;;1.42;1.23;;;16.60;54.10;;;;;;5050009;28;20245;-68
2022/05/31 01:41:53;;;;;;;1.10;1.00;;;16.60;54.20;;;;;;5049032;28;20539;-67
2022/05/31 01:44:19;;;;;;;1.80;1.10;;;16.60;54.20;;;;;;5049930;28;20171;-66
2022/05/31 01:46:44;;;;;;;0.90;0.90;;;16.60;54.20;;;;;;5048844;28;20213;-66
2022/05/31 01:49:12;;;;;;;1.17;1.00;;;16.60;54.20;;;;;;5049822;28;20171;-66
2022/05/31 01:51:38;;;;;;;1.98;1.13;;;16.60;54.20;;;;;;5049387;28;20602;-66
2022/05/31 01:54:04;;;;;;;1.00;0.90;;;16.60;54.20;;;;;;5049048;28;20202;-67
2022/05/31 01:56:29;;;;;;;1.77;1.10;;;16.50;54.20;;;;;;5050027;28;20599;-67
2022/05/31 01:58:58;;;;;;;1.20;1.10;;;16.50;54.20;;;;;;5050802;28;20187;-68
2022/05/31 02:01:23;;;;;;;1.38;1.25;;;16.50;54.20;;;;;;5050113;28;20250;-69
2022/05/31 02:03:49;;;;;;;1.05;1.00;;;16.50;54.20;;;;;;5050537;28;20583;-67
2022/05/31 02:06:38;;;;;;;1.00;0.90;;;16.50;54.10;;;;;;5050606;28;20290;-67
2022/05/31 02:09:05;;;;;;;1.02;1.02;;;16.50;54.20;;;;;;5050099;28;20218;-66
2022/05/31 02:11:30;;;;;;;1.42;0.82;;;16.50;54.20;;;;;;5053200;28;20183;-67
2022/05/31 02:13:58;;;;;;;1.75;0.93;;;16.50;54.20;;;;;;5054394;28;20183;-66
2022/05/31 02:16:24;;;;;;;1.13;1.00;;;16.50;54.20;;;;;;5054066;28;20695;-66
2022/05/31 02:21:36;;;;;;;1.08;0.98;;;16.50;54.20;;;;;;5053959;28;20539;-67
2022/05/31 02:24:03;;;;;;;1.52;1.17;;;16.50;54.20;;;;;;5054286;28;20171;-67
2022/05/31 02:26:29;;;;;;;1.20;1.10;;;16.40;54.10;;;;;;5055153;28;20269;-66
2022/05/31 02:28:54;;;;;;;1.00;0.90;;;16.40;54.10;;;;;;5054305;28;20568;-67
2022/05/31 02:31:20;;;;;;;1.27;1.00;;;16.40;54.20;;;;;;5055074;28;20183;-67
2022/05/31 02:33:45;;;;;;;1.48;1.20;;;16.40;54.20;;;;;;5055091;28;20171;-68
2022/05/31 02:36:11;;;;;;;1.48;1.10;;;16.40;54.20;;;;;;5054502;28;20175;-68
2022/05/31 02:38:36;;;;;;;1.00;0.98;;;16.40;54.10;;;;;;5054562;28;20198;-67
2022/05/31 02:41:05;;;;;;;1.30;1.20;;;16.40;54.10;;;;;;5054967;28;20540;-67
2022/05/31 02:43:30;;;;;;;1.50;1.00;;;16.40;54.20;;;;;;5054348;28;20175;-67
2022/05/31 02:45:58;;;;;;;0.98;0.90;;;16.40;54.20;;;;;;5054509;28;20214;-67
2022/05/31 02:48:24;;;;;;;1.70;1.05;;;16.40;54.20;;;;;;5053982;28;20229;-65
2022/05/31 02:50:49;;;;;;;1.95;1.05;;;16.40;54.20;;;;;;5053902;28;20254;-67
2022/05/31 02:53:15;;;;;;;1.90;1.08;;;16.40;54.20;;;;;;5054747;28;20186;-67
2022/05/31 02:55:40;;;;;;;1.50;1.20;;;16.40;54.30;;;;;;5054463;28;20179;-68
2022/05/31 02:58:06;;;;;;;1.30;1.20;;;16.40;54.30;;;;;;5054025;28;20187;-69
2022/05/31 03:00:31;;;;;;;1.20;1.00;;;16.40;54.20;;;;;;5054372;28;20230;-69
2022/05/31 03:02:57;;;;;;;1.00;0.90;;;16.40;54.30;;;;;;5054393;28;20544;-69
2022/05/31 03:05:23;;;;;;;1.55;1.27;;;16.40;54.20;;;;;;5054000;28;20190;-68
2022/05/31 03:07:48;;;;;;;1.00;1.00;;;16.30;54.20;;;;;;5054370;28;20258;-67
2022/05/31 03:10:14;;;;;;;1.55;1.45;;;16.30;54.20;;;;;;5054814;28;20595;-66
2022/05/31 03:12:40;;;;;;;1.00;1.00;;;16.30;54.20;;;;;;5053283;28;20179;-67
2022/05/31 03:15:10;;;;;;;1.63;1.20;;;16.30;54.20;;;;;;5054365;28;20583;-66
2022/05/31 03:17:37;;;;;;;1.10;1.10;;;16.30;54.20;;;;;;5052934;28;20183;-66
2022/05/31 03:20:15;;;;;;;1.65;1.17;;;16.30;54.20;;;;;;5053630;28;20175;-66
2022/05/31 03:22:49;;;;;;;1.67;1.20;;;16.30;54.20;;;;;;5052337;28;20179;-66
2022/05/31 03:25:18;;;;;;;1.15;1.13;;;16.30;54.20;;;;;;5052231;28;20183;-67
2022/05/31 03:27:44;;;;;;;1.95;1.33;;;16.30;54.20;;;;;;5052803;28;20183;-67
2022/05/31 03:30:10;;;;;;;1.88;1.58;;;16.30;54.20;;;;;;5053189;28;20182;-68
2022/05/31 03:32:35;;;;;;;1.17;1.08;;;16.30;54.30;;;;;;5053037;28;20183;-68
2022/05/31 03:35:01;;;;;;;1.30;1.20;;;16.30;54.30;;;;;;5054143;28;20175;-67
2022/05/31 03:37:26;;;;;;;1.83;1.38;;;16.30;54.20;;;;;;5052929;28;20198;-68
2022/05/31 03:39:52;;;;;;;1.40;1.30;;;16.30;54.30;;;;;;5053005;28;20240;-67
2022/05/31 03:42:17;;;;;;;1.48;1.38;;;16.30;54.20;;;;;;5053773;28;20171;-67
2022/05/31 03:44:43;;;;;;;2.13;1.17;;;16.30;54.30;;;;;;5053449;28;20269;-66
2022/05/31 03:47:08;;;;;;;2.50;1.40;;;16.30;54.20;;;;;;5053127;28;20215;-67
2022/05/31 03:49:37;;;;;;;1.85;1.40;;;16.30;54.20;;;;;;5053752;28;20258;-66
2022/05/31 03:52:03;;;;;;;1.48;1.38;;;16.30;54.30;;;;;;5053592;28;20178;-66
2022/05/31 03:54:29;;;;;;;4.55;1.58;;;16.30;54.20;;;;;;5052849;28;20225;-67
2022/05/31 03:56:54;;;;;;;2.83;1.48;;;16.30;54.30;;;;;;5053163;28;20665;-68
2022/05/31 03:59:20;;;;;;;3.08;1.58;;;16.20;54.20;;;;;;5053453;28;20174;-69
2022/05/31 04:01:45;;;;;;;2.13;1.40;;;16.30;54.20;;;;;;5052267;28;20721;-68
2022/05/31 04:04:11;;;;;;;1.38;1.27;;;16.30;54.20;;;;;;5053547;28;20197;-67
2022/05/31 04:06:36;;;;;;;2.22;1.50;;;16.30;54.20;;;;;;5053225;28;20317;-67
2022/05/31 04:09:03;;;;;;;1.70;1.60;;;16.20;54.20;;;;;;5052488;28;20686;-66
2022/05/31 04:11:28;;;;;;;1.65;1.50;;;16.20;54.30;;;;;;5053240;28;20567;-66
2022/05/31 04:13:54;;;;;;;2.25;1.25;;;16.20;54.80;;;;;;5053047;28;20178;-66
2022/05/31 04:16:20;;;;;;;1.48;1.38;;;16.20;54.20;;;;;;5052590;28;20182;-66
2022/05/31 04:18:46;;;;;;;2.65;1.40;;;16.20;54.20;;;;;;5052685;28;20175;-67
2022/05/31 04:21:12;;;;;;;1.67;1.58;;;16.20;54.20;;;;;;5053062;28;20224;-67
2022/05/31 04:23:58;;;;;;;1.88;1.50;;;16.20;54.20;;;;;;5052848;28;20269;-66
2022/05/31 04:26:35;;;;;;;1.50;1.40;;;16.20;54.20;;;;;;5053443;28;20263;-67
2022/05/31 04:29:01;;;;;;;1.50;1.40;;;16.20;54.20;;;;;;5052454;28;20272;-67
2022/05/31 04:31:27;;;;;;;1.60;1.33;;;16.20;54.20;;;;;;5053222;28;20639;-68
2022/05/31 04:33:52;;;;;;;1.60;1.50;;;16.20;54.30;;;;;;5052012;28;20241;-68
2022/05/31 04:36:18;;;;;;;1.70;1.60;;;16.20;54.30;;;;;;5052228;28;20175;-68
2022/05/31 04:38:44;;;;;;;2.08;1.48;;;16.20;54.30;;;;;;5052422;28;20669;-68
2022/05/31 04:41:21;;;;;;;1.70;1.60;;;16.20;54.30;;;;;;5052664;28;20175;-67
2022/05/31 04:43:46;;;;;;;1.95;1.48;;;16.20;54.30;;;;;;5051695;28;20668;-69
2022/05/31 04:46:16;;;;;;;1.88;1.70;;;16.20;54.40;;;;;;5052643;28;20195;-68
2022/05/31 04:48:42;;;;;;;1.50;1.40;;;16.20;54.30;;;;;;5052554;28;20183;-67
2022/05/31 04:51:07;;;;;;;1.92;1.77;;;16.20;54.40;;;;;;5052288;28;20179;-68
2022/05/31 04:53:33;;;;;;;3.03;1.85;;;16.20;54.40;;;;;;5052737;28;20684;-69
2022/05/31 04:56:06;;;;;;;2.42;1.88;;;16.20;54.40;;;;;;5052270;28;20203;-69
2022/05/31 04:58:32;;;;;;;2.83;1.85;;;16.20;54.50;;;;;;5052133;28;20185;-69
2022/05/31 05:00:57;;;;;;;2.50;1.90;;;16.20;54.50;;;;;;5052042;28;20305;-69
2022/05/31 05:03:23;;;;;;;1.40;1.30;;;16.20;54.50;;;;;;5051925;28;20175;-69
2022/05/31 05:05:48;;;;;;;1.65;1.55;;;16.20;54.50;;;;;;5052460;28;20211;-70
2022/05/31 05:08:14;;;;;;;2.72;1.77;;;16.20;54.50;;;;;;5052538;28;20606;-67
2022/05/31 05:10:45;;;;;;;1.70;1.60;;;16.20;54.60;;;;;;5051619;28;20233;-68
2022/05/31 05:13:12;;;;;;;2.00;1.80;;;16.20;54.60;;;;;;5052517;28;20657;-69
2022/05/31 05:15:41;;;;;;;1.92;1.83;;;16.20;54.60;;;;;;5052479;28;20251;-68
2022/05/31 05:18:06;;;;;;;1.70;1.60;;;16.20;54.60;;;;;;5051606;28;20175;-67
2022/05/31 05:20:36;;;;;;;1.80;1.70;;;16.20;54.60;;;;;;5052475;28;20178;-67
2022/05/31 05:23:05;;;;;;;1.73;1.63;;;16.20;54.70;;;;;;5052508;28;20187;-67
2022/05/31 05:25:31;;;;;;;1.67;1.58;;;16.20;54.60;;;;;;5051567;28;20175;-67
2022/05/31 05:27:57;;;;;;;1.80;1.70;;;16.20;54.60;;;;;;5051913;28;20193;-68
2022/05/31 05:30:40;;;;;;;1.60;1.50;;;16.20;54.70;;;;;;5052303;28;20253;-69
2022/05/31 05:33:06;;;;;;;1.92;1.73;;;16.20;54.70;;;;;;5051348;28;20661;-69
2022/05/31 05:35:32;;;;;;;3.15;1.85;;;16.20;55.30;;;;;;5052182;28;20171;-69
2022/05/31 05:37:59;;;;;;;1.90;1.55;;;16.20;54.80;;;;;;5051923;28;20181;-69
2022/05/31 05:40:25;;;;;;;2.10;1.90;;;16.20;54.80;;;;;;5051531;28;20186;-69
2022/05/31 05:42:50;;;;;;;2.17;1.77;;;16.20;54.70;;;;;;5051746;28;20179;-68
2022/05/31 05:45:18;;;;;;;3.22;1.60;;;16.20;54.80;;;;;;5054010;28;20167;-68
2022/05/31 05:47:43;;;;;;;1.63;1.52;;;16.20;55.00;;;;;;5055252;28;20248;-68
2022/05/31 05:50:09;;;;;;;1.88;1.60;;;16.30;54.90;;;;;;5056299;28;20175;-67
2022/05/31 05:52:37;;;;;;;1.50;1.40;;;16.30;54.80;;;;;;5054916;28;20182;-67
2022/05/31 05:55:04;;;;;;;1.70;1.60;;;16.40;54.80;;;;;;5056171;28;20224;-68
2022/05/31 05:57:30;;;;;;;1.30;1.20;;;16.40;54.70;;;;;;5056245;28;20726;-69
2022/05/31 05:59:55;;;;;;;2.58;1.83;;;16.40;54.80;;;;;;5055501;28;20250;-69
2022/05/31 06:02:24;;;;;;;1.83;1.52;;;16.40;54.80;;;;;;5055941;28;20705;-69
2022/05/31 06:04:53;;;;;;;1.73;1.55;;;16.40;54.90;;;;;;5054696;28;20175;-69
2022/05/31 06:07:30;;;;;;;2.03;1.83;;;16.50;55.10;;;;;;5055397;28;20211;-69
2022/05/31 06:10:06;;;;;;;1.80;1.70;;;16.50;55.10;;;;;;5054387;28;20586;-67
2022/05/31 06:12:37;;;;;;;1.88;1.67;;;16.60;55.10;;;;;;5056195;28;20254;-68
2022/05/31 06:15:09;;;;;;;2.72;1.73;;;16.70;55.00;;;;;;5055442;28;20179;-67
2022/05/31 06:17:40;;;;;;;4.15;1.70;;;16.90;55.00;;;;;;5054542;28;20182;-68
2022/05/31 06:20:07;;;;;;;2.20;1.42;;;17.00;54.70;;;;;;5054633;28;20641;-68
2022/05/31 06:22:32;;;;;;;1.90;1.70;;;17.10;54.50;;;;;;5055082;28;20179;-67
2022/05/31 06:24:58;;;;;;;2.88;1.70;;;17.20;54.30;;;;;;5054193;28;20232;-68
2022/05/31 06:27:24;;;;;;;3.50;1.60;;;17.30;54.10;;;;;;5055798;28;20280;-68
2022/05/31 06:29:49;;;;;;;4.00;1.58;;;17.50;53.90;;;;;;5054858;28;20188;-69
2022/05/31 06:32:16;;;;;;;5.22;2.08;;;17.70;53.50;;;;;;5055717;28;20176;-71
2022/05/31 06:34:42;;;;;;;6.55;2.20;;;17.70;53.20;;;;;;5055115;28;20171;-74
2022/05/31 06:37:09;;;;;;;5.57;2.00;;;17.90;52.90;;;;;;5055119;28;20178;-71
2022/05/31 06:39:36;;;;;;;4.95;1.45;;;18.10;52.70;;;;;;5055427;28;20202;-69
2022/05/31 06:42:02;;;;;;;3.58;1.70;;;18.20;52.40;;;;;;5054946;28;20213;-69
2022/05/31 06:44:31;;;;;;;3.95;1.67;;;18.30;52.40;;;;;;5055364;28;20606;-69
2022/05/31 06:46:56;;;;;;;3.92;1.60;;;18.40;52.20;;;;;;5055028;28;20226;-71
2022/05/31 06:49:22;;;;;;;3.00;1.80;;;18.50;52.20;;;;;;5054477;28;20179;-68
2022/05/31 06:57:15;;;;;;;2.72;1.58;;;18.40;52.40;;;;;;5053881;28;20233;-69
2022/05/31 06:59:41;;;;;;;2.17;1.40;;;18.40;52.60;;;;;;5054800;28;20179;-69
2022/05/31 07:02:06;;;;;;;4.38;1.90;;;18.40;52.70;;;;;;5054721;28;20239;-69
2022/05/31 07:04:35;;;;;;;2.67;1.60;;;18.50;52.80;;;;;;5054511;28;20183;-69
2022/05/31 07:07:01;;;;;;;2.58;1.52;;;18.50;52.70;;;;;;5054995;28;20214;-70
2022/05/31 07:09:27;;;;;;;3.60;1.30;;;18.50;52.70;;;;;;5053831;28;20198;-68
2022/05/31 07:11:55;;;;;;;4.68;1.60;;;18.50;52.90;;;;;;5054096;28;20171;-68
2022/05/31 07:14:21;;;;;;;2.53;1.40;;;18.50;53.00;;;;;;5054839;28;20171;-67
2022/05/31 07:16:46;;;;;;;2.00;1.27;;;18.40;53.10;;;;;;5054384;28;20175;-72
2022/05/31 07:19:12;;;;;;;2.95;1.33;;;18.40;53.30;;;;;;5054200;28;20163;-71
2022/05/31 07:21:37;;;;;;;3.75;1.33;;;18.30;53.30;;;;;;5054697;28;20178;-71
2022/05/31 07:24:03;;;;;;;4.07;1.50;;;18.20;53.30;;;;;;5054310;28;20178;-73
2022/05/31 07:26:28;;;;;;;2.80;1.48;;;18.10;53.40;;;;;;5054508;28;20574;-72
2022/05/31 07:28:54;;;;;;;3.20;1.35;;;18.10;53.50;;;;;;5054395;28;20226;-74
2022/05/31 07:31:20;;;;;;;2.42;1.30;;;18.00;53.60;;;;;;5053776;28;20245;-74
2022/05/31 07:33:45;;;;;;;2.28;1.23;;;17.90;53.70;;;;;;5054089;28;20172;-75
2022/05/31 07:36:11;;;;;;;2.45;1.38;;;17.90;53.80;;;;;;5054550;28;20182;-74
2022/05/31 07:38:36;;;;;;;2.00;1.40;;;17.90;53.80;;;;;;5053454;28;20217;-74
2022/05/31 07:41:02;;;;;;;2.47;1.55;;;17.90;53.80;;;;;;5054347;28;20536;-74
2022/05/31 07:43:28;;;;;;;3.38;1.48;;;17.90;53.80;;;;;;5054320;28;20186;-74
2022/05/31 07:46:05;;;;;;;2.55;1.75;;;17.90;53.90;;;;;;5053172;28;20293;-73
2022/05/31 07:48:32;;;;;;;1.92;1.40;;;17.90;53.80;;;;;;5054399;28;20179;-73
2022/05/31 07:50:58;;;;;;;3.97;1.33;;;17.80;53.80;;;;;;5053887;28;20171;-74
2022/05/31 07:53:23;;;;;;;2.05;1.60;;;17.90;53.90;;;;;;5053364;28;20733;-73
2022/05/31 07:56:00;;;;;;;1.90;1.48;;;17.80;54.00;;;;;;5053814;28;20186;-73
2022/05/31 07:58:32;;;;;;;2.58;1.33;;;17.80;54.00;;;;;;5054018;28;20167;-73
2022/05/31 08:01:01;;;;;;;1.88;1.45;;;17.90;54.10;;;;;;5052983;28;20246;-74
2022/05/31 08:03:26;;;;;;;1.60;1.20;;;17.90;54.10;;;;;;5054076;28;20203;-75
2022/05/31 08:05:53;;;;;;;1.52;1.42;;;17.90;54.10;;;;;;5053533;28;20686;-76
2022/05/31 08:08:19;;;;;;;2.60;1.40;;;17.90;54.00;;;;;;5052094;28;20254;-74
2022/05/31 08:10:44;;;;;;;3.10;1.40;;;17.90;53.90;;;;;;5053464;28;20199;-74
2022/05/31 08:13:10;;;;;;;2.45;1.45;;;17.90;54.00;;;;;;5053465;28;20257;-73
2022/05/31 08:15:35;;;;;;;2.25;1.40;;;17.80;54.10;;;;;;5052914;28;20237;-73
2022/05/31 08:18:01;;;;;;;1.50;1.40;;;17.80;54.10;;;;;;5053820;28;20175;-71
2022/05/31 08:20:26;;;;;;;1.70;1.30;;;17.90;54.10;;;;;;5052784;28;20186;-72
2022/05/31 08:22:52;;;;;;;1.95;1.27;;;17.90;54.20;;;;;;5053262;28;20179;-73
2022/05/31 08:25:17;;;;;;;1.50;1.23;;;17.90;54.20;;;;;;5053517;28;20186;-74
2022/05/31 08:27:43;;;;;;;1.63;1.52;;;17.90;54.10;;;;;;5052530;28;20608;-74
2022/05/31 08:30:09;;;;;;;2.67;1.40;;;17.90;54.10;;;;;;5053495;28;20586;-74
2022/05/31 08:32:35;;;;;;;2.88;1.40;;;17.90;54.20;;;;;;5053455;28;20178;-74
2022/05/31 08:35:04;;;;;;;1.45;1.13;;;17.90;54.20;;;;;;5052711;28;20194;-75
2022/05/31 08:37:30;;;;;;;1.98;1.42;;;17.90;54.20;;;;;;5053382;28;20182;-74
2022/05/31 08:39:56;;;;;;;2.53;1.52;;;17.90;54.30;;;;;;5053138;28;20183;-74
2022/05/31 08:42:23;;;;;;;2.08;1.20;;;17.90;54.40;;;;;;5052611;28;20595;-73
2022/05/31 08:44:56;;;;;;;1.45;1.00;;;17.90;54.30;;;;;;5051941;28;20233;-73
2022/05/31 08:47:45;;;;;;;1.75;1.27;;;17.90;54.30;;;;;;5052046;28;20229;-73
2022/05/31 08:53:22;;;;;;;1.20;1.10;;;17.90;54.20;;;;;;5053411;28;20178;-72
2022/05/31 08:59:13;;;;;;;1.30;1.20;;;17.90;54.40;;;;;;5051903;28;20209;-74
2022/05/31 09:01:52;;;;;;;2.20;1.27;;;17.90;54.40;;;;;;5051382;28;20227;-73
2022/05/31 09:04:33;;;;;;;2.05;1.30;;;18.00;54.40;;;;;;5051063;28;20696;-76
2022/05/31 09:07:07;;;;;;;3.20;1.60;;;18.00;54.40;;;;;;5051359;28;20218;-73
2022/05/31 09:09:50;;;;;;;3.00;1.50;;;18.10;54.40;;;;;;5051235;28;20187;-70
2022/05/31 09:12:26;;;;;;;1.88;1.42;;;18.10;54.30;;;;;;5051827;28;20201;-69
2022/05/31 09:15:15;;;;;;;2.35;1.40;;;18.10;54.30;;;;;;5051348;28;20182;-70
2022/05/31 09:18:04;;;;;;;1.92;1.48;;;18.10;54.30;;;;;;5050562;28;20597;-70
2022/05/31 09:20:43;;;;;;;1.88;1.58;;;18.10;54.40;;;;;;5050573;28;20289;-67
2022/05/31 09:23:08;;;;;;;2.75;1.85;;;18.10;54.50;;;;;;5051755;28;20179;-67
2022/05/31 09:25:41;;;;;;;3.47;1.95;;;18.10;54.50;;;;;;5052140;28;20582;-70
2022/05/31 09:28:19;;;;;;;2.42;1.63;;;18.10;54.50;;;;;;5052657;28;20614;-69
2022/05/31 09:30:45;;;;;;;5.18;1.73;;;18.10;54.50;;;;;;5050365;28;20597;-70
2022/05/31 09:33:46;;;;;;;1.98;1.40;;;18.10;54.40;;;;;;5051457;28;20175;-71
2022/05/31 09:36:26;;;;;;;3.33;1.65;;;18.10;54.30;;;;;;5032930;28;20184;-69
2022/05/31 09:39:05;;;;;;;5.85;1.70;;;18.20;54.20;;;;;;5050742;28;20178;-69
2022/05/31 09:41:39;;;;;;;2.08;1.65;;;18.20;54.10;;;;;;5051358;28;20630;-69
2022/05/31 09:44:17;;;;;;;2.92;1.45;;;18.20;54.00;;;;;;5051357;28;20183;-69
2022/05/31 09:47:17;;;;;;;2.25;1.25;;;18.30;54.00;;;;;;5051582;28;20214;-69
2022/05/31 09:49:47;;;;;;;3.75;1.40;;;18.20;53.90;;;;;;5060178;28;20171;-68
2022/05/31 09:52:23;;;;;;;3.45;1.50;;;18.30;54.00;;;;;;5054005;28;20262;-68
2022/05/31 09:58:22;;;;;;;3.53;1.88;;;18.30;54.10;;;;;;5059000;28;20214;-70
2022/05/31 10:01:04;;;;;;;2.47;1.70;;;18.30;53.90;;;;;;5048473;28;20755;-69
2022/05/31 10:03:33;;;;;;;1.50;1.30;;;18.40;53.90;;;;;;5052300;28;20265;-70
2022/05/31 10:06:12;;;;;;;2.80;1.63;;;18.40;53.90;;;;;;5060368;28;20293;-69
2022/05/31 10:08:37;;;;;;;1.77;1.52;;;18.40;53.90;;;;;;5072217;28;20196;-68
2022/05/31 10:11:14;;;;;;;4.38;1.67;;;18.40;53.90;;;;;;5072172;28;20253;-68
2022/05/31 10:13:53;;;;;;;4.03;1.63;;;18.40;53.90;;;;;;5071219;28;20178;-67
2022/05/31 10:16:24;;;;;;;1.75;1.35;;;18.40;53.80;;;;;;5072114;28;20570;-67
2022/05/31 10:19:01;;;;;;;4.25;1.90;;;18.30;54.00;;;;;;5071126;28;20173;-67
2022/05/31 10:21:40;;;;;;;2.72;1.88;;;18.30;54.10;;;;;;5061258;28;20256;-67
2022/05/31 10:24:06;;;;;;;2.33;1.30;;;18.30;54.20;;;;;;5070189;28;20178;-67
2022/05/31 10:26:32;;;;;;;1.40;1.30;;;18.40;54.10;;;;;;5071853;28;20210;-67
2022/05/31 10:29:00;;;;;;;1.77;1.58;;;18.40;54.00;;;;;;5070987;28;20696;-69
2022/05/31 10:31:32;;;;;;;1.42;1.30;;;18.40;53.90;;;;;;5055248;28;20207;-69
2022/05/31 10:34:18;;;;;;;1.50;1.40;;;18.40;53.90;;;;;;5073390;28;20186;-70
2022/05/31 10:36:52;;;;;;;2.72;1.83;;;18.40;53.90;;;;;;5070958;28;20641;-69
2022/05/31 10:39:23;;;;;;;1.60;1.50;;;18.40;54.00;;;;;;5075473;28;20265;-69
2022/05/31 10:41:54;;;;;;;2.15;1.67;;;18.40;53.90;;;;;;5073397;28;20187;-69
2022/05/31 10:44:32;;;;;;;1.65;1.45;;;18.40;54.00;;;;;;5074354;28;20182;-69
2022/05/31 10:47:15;;;;;;;1.85;1.30;;;18.40;54.10;;;;;;5073940;28;20206;-69
2022/05/31 10:49:41;;;;;;;3.33;1.52;;;18.40;54.00;;;;;;5073308;28;20167;-67
2022/05/31 10:52:16;;;;;;;3.28;1.25;;;18.40;54.10;;;;;;5074108;28;20637;-68
2022/05/31 10:54:51;;;;;;;4.60;1.25;;;18.30;54.10;;;;;;5075060;28;20197;-68
2022/05/31 10:57:23;;;;;;;2.45;1.85;;;18.40;54.10;;;;;;5064054;28;20198;-69
2022/05/31 11:00:16;;;;;;;3.25;1.58;;;18.40;54.10;;;;;;5054724;28;20246;-69
2022/05/31 11:02:57;;;;;;;3.95;1.60;;;18.40;54.20;;;;;;5037594;28;20202;-69
2022/05/31 11:05:35;;;;;;;2.85;1.40;;;18.40;54.20;;;;;;5053974;28;20166;-68
2022/05/31 11:11:33;;;;;;;2.03;1.80;;;18.50;54.30;;;;;;5053370;28;20171;-67
2022/05/31 11:14:18;;;;;;;1.95;1.20;;;18.50;54.30;;;;;;5037087;28;20262;-66
2022/05/31 11:17:14;;;;;;;3.83;1.50;;;18.50;54.40;;;;;;5054010;28;20191;-67
2022/05/31 11:19:59;;;;;;;4.53;1.90;;;18.50;54.30;;;;;;5054413;28;20174;-66
2022/05/31 11:22:32;;;;;;;4.15;1.45;;;18.50;54.20;;;;;;5053627;28;20193;-67
2022/05/31 11:24:57;;;;;;;3.38;1.63;;;18.60;54.20;;;;;;5052614;28;20178;-70
2022/05/31 11:27:30;;;;;;;3.78;1.80;;;18.60;54.20;;;;;;5054682;28;20206;-68
2022/05/31 11:29:56;;;;;;;3.08;1.50;;;18.60;54.30;;;;;;5053264;28;20186;-68
2022/05/31 11:32:44;;;;;;;4.25;1.70;;;18.60;54.10;;;;;;5054319;28;20175;-67
2022/05/31 11:35:28;;;;;;;5.72;1.92;;;18.70;54.10;;;;;;5053437;28;20164;-69
2022/05/31 11:37:54;;;;;;;4.22;1.40;;;18.70;54.20;;;;;;5053427;28;20171;-69
2022/05/31 11:40:30;;;;;;;8.52;1.80;;;18.70;54.10;;;;;;5054372;28;20182;-68
2022/05/31 11:43:12;;;;;;;3.88;1.90;;;18.60;54.50;;;;;;5053873;28;20208;-68
2022/05/31 11:45:49;;;;;;;2.58;1.23;;;18.50;54.50;;;;;;5053245;28;20214;-67
2022/05/31 11:48:33;;;;;;;3.67;1.60;;;18.50;54.60;;;;;;5053104;28;20216;-69
2022/05/31 11:51:05;;;;;;;3.50;1.40;;;18.70;54.40;;;;;;5052855;28;20210;-68
2022/05/31 11:53:45;;;;;;;3.50;1.50;;;18.60;54.30;;;;;;5053404;28;20608;-68
2022/05/31 11:56:34;;;;;;;1.75;1.27;;;18.60;54.50;;;;;;5055068;28;20633;-70
2022/05/31 11:59:20;;;;;;;6.00;1.50;;;18.70;54.40;;;;;;5069506;28;20178;-70
2022/05/31 12:02:12;;;;;;;4.82;1.63;;;18.80;54.20;;;;;;5071787;28;20222;-72
2022/05/31 12:05:05;;;;;;;2.90;1.70;;;18.70;54.20;;;;;;5072295;28;20695;-71
2022/05/31 12:07:34;;;;;;;3.97;1.92;;;18.70;54.30;;;;;;5073128;28;20209;-70
2022/05/31 12:10:11;;;;;;;1.67;1.40;;;18.80;54.20;;;;;;5056227;28;20174;-69
2022/05/31 12:12:36;;;;;;;3.10;1.35;;;18.80;54.10;;;;;;5056213;28;20263;-66
2022/05/31 12:15:09;;;;;;;1.40;1.25;;;18.70;54.30;;;;;;5073760;28;20649;-66
2022/05/31 12:17:58;;;;;;;2.90;1.92;;;18.80;54.10;;;;;;5073227;28;20186;-63
2022/05/31 12:20:42;;;;;;;2.03;1.52;;;18.90;54.10;;;;;;5072852;28;20182;-68
2022/05/31 12:23:15;;;;;;;3.65;1.55;;;19.00;53.80;;;;;;5073372;28;20174;-69
2022/05/31 12:25:47;;;;;;;1.88;1.48;;;19.10;53.70;;;;;;5071996;28;20178;-69
2022/05/31 12:28:26;;;;;;;3.90;1.50;;;19.20;53.60;;;;;;5055307;28;20185;-69
2022/05/31 12:31:07;;;;;;;2.28;1.50;;;19.20;53.50;;;;;;5072014;28;20178;-71
2022/05/31 12:33:40;;;;;;;2.38;1.40;;;19.30;53.40;;;;;;5071260;28;20185;-71
2022/05/31 12:36:08;;;;;;;4.82;1.42;;;19.30;53.30;;;;;;5072312;28;20174;-71
2022/05/31 12:38:52;;;;;;;2.05;1.50;;;19.40;53.20;;;;;;5071984;28;20530;-70
2022/05/31 12:41:43;;;;;;;1.65;1.27;;;19.40;53.20;;;;;;5072491;28;20166;-69
2022/05/31 12:44:12;;;;;;;3.55;1.70;;;19.40;53.30;;;;;;5072130;28;20182;-68
2022/05/31 12:46:40;;;;;;;2.42;1.67;;;19.40;53.40;;;;;;5071826;28;20206;-68
2022/05/31 12:49:32;;;;;;;1.83;1.02;;;19.40;53.30;;;;;;5072474;28;20206;-68
2022/05/31 12:52:54;;;;;;;2.22;1.40;;;19.40;53.00;;;;;;5071866;28;20637;-69
2022/05/31 12:54:58;;;;;;;4.28;1.65;;;19.40;52.90;;;;;;5070873;28;20277;-69
2022/05/31 12:58:26;;;;;;;2.65;1.55;;;19.40;52.80;;;;;;5060587;28;20171;-69
2022/05/31 13:00:41;;;;;;;2.28;1.40;;;19.40;52.60;;;;;;5052640;28;20179;-69
2022/05/31 13:03:36;;;;;;;1.30;1.20;;;19.50;52.50;;;;;;5051318;28;20241;-70
2022/05/31 13:06:02;;;;;;;2.20;1.20;;;19.50;52.40;;;;;;5053052;28;20289;-69
2022/05/31 13:08:52;;;;;;;1.30;1.15;;;19.50;52.20;;;;;;5052808;28;20266;-69
2022/05/31 13:19:59;;;;;;;1.30;1.20;;;19.50;52.10;;;;;;5051406;28;20222;-66
2022/05/31 13:22:25;;;;;;;2.67;1.38;;;19.40;52.30;;;;;;5036286;28;20181;-67
2022/05/31 13:25:02;;;;;;;2.47;1.40;;;19.30;52.40;;;;;;5050458;28;20594;-67
2022/05/31 13:27:29;;;;;;;1.83;1.50;;;19.20;52.50;;;;;;5036210;28;20234;-68
2022/05/31 13:30:11;;;;;;;1.58;1.30;;;19.20;52.60;;;;;;5051794;28;20182;-69
2022/05/31 13:32:38;;;;;;;2.45;1.35;;;19.10;52.70;;;;;;5052244;28;20228;-69
2022/05/31 13:35:24;;;;;;;2.17;1.23;;;19.10;52.80;;;;;;5052750;28;20179;-70
2022/05/31 13:37:51;;;;;;;2.03;1.40;;;19.00;52.90;;;;;;5051616;28;20189;-69